Time;durP1;ratioP1;P1;durP2;ratioP2;P2;SDS_P1;SDS_P2;PMS_P1;PMS_P2;Temp;Humidity;BMP_temperature;BMP_pressure;BME280_temperature;BME280_humidity;BME280_pressure;Samples;Min_cycle;Max_cycle;Signal;HPM_P1;HPM_P2
2022/06/13 00:02:06;;;;;;;11.43;3.92;;;;;;;17.34;71.04;102172.91;6268432;22;20014;-59
2022/06/13 00:04:31;;;;;;;7.65;3.92;;;;;;;17.29;70.81;102173.13;6241202;22;20031;-61
2022/06/13 00:06:57;;;;;;;14.77;4.70;;;;;;;17.32;71.10;102172.13;6242355;22;20051;-61
2022/06/13 00:09:22;;;;;;;14.20;4.25;;;;;;;17.25;71.40;102162.66;6268767;22;20000;-61
2022/06/13 00:11:47;;;;;;;12.38;3.75;;;;;;;17.23;71.52;102170.72;6268507;22;20004;-60
2022/06/13 00:14:13;;;;;;;11.93;3.42;;;;;;;17.17;71.74;102160.31;6268948;22;20003;-60
2022/06/13 00:16:39;;;;;;;11.90;3.90;;;;;;;17.13;72.12;102154.22;6268586;22;20010;-60
2022/06/13 00:19:04;;;;;;;12.57;4.10;;;;;;;17.07;72.29;102149.19;6242068;22;20000;-60
2022/06/13 00:21:35;;;;;;;14.55;4.80;;;;;;;16.96;73.35;102149.56;6269807;22;20058;-61
2022/06/13 00:24:03;;;;;;;13.50;5.03;;;;;;;16.92;73.39;102148.81;6268876;22;20003;-60
2022/06/13 00:26:31;;;;;;;13.10;4.07;;;;;;;16.91;73.46;102147.09;6267847;22;20360;-61
2022/06/13 00:28:56;;;;;;;10.80;4.53;;;;;;;17.02;72.81;102144.00;6268705;22;20000;-61
2022/06/13 00:31:22;;;;;;;15.35;4.78;;;;;;;17.02;72.62;102152.00;6267394;22;20003;-59
2022/06/13 00:33:48;;;;;;;13.18;4.18;;;;;;;17.03;72.56;102147.50;6268841;22;20380;-59
2022/06/13 00:36:14;;;;;;;17.35;4.13;;;;;;;17.00;72.45;102143.19;6267750;22;20015;-60
2022/06/13 00:38:39;;;;;;;14.30;4.70;;;;;;;16.99;72.65;102148.56;6268547;22;20007;-59
2022/06/13 00:41:17;;;;;;;17.67;4.80;;;;;;;16.91;72.63;102155.06;6268975;22;20100;-60
2022/06/13 00:43:45;;;;;;;14.52;4.70;;;;;;;16.89;72.88;102145.44;6268670;22;20057;-60
2022/06/13 00:46:22;;;;;;;15.15;4.10;;;;;;;16.91;72.83;102152.41;6266929;22;20366;-60
2022/06/13 00:48:56;;;;;;;13.52;4.53;;;;;;;16.92;72.54;102147.97;6268656;22;20049;-61
2022/06/13 00:51:21;;;;;;;13.93;4.22;;;;;;;16.87;73.16;102145.47;6241159;22;20239;-59
2022/06/13 00:53:47;;;;;;;18.17;4.90;;;;;;;16.84;73.26;102142.94;6240897;22;20000;-61
2022/06/13 00:56:17;;;;;;;19.95;5.20;;;;;;;16.74;73.64;102134.44;6268338;22;20004;-60
2022/06/13 00:58:51;;;;;;;18.88;5.03;;;;;;;16.75;74.01;102135.31;6242136;22;19999;-59
2022/06/13 01:01:17;;;;;;;16.25;4.68;;;;;;;16.70;74.52;102127.50;6267576;22;20010;-60
2022/06/13 01:03:43;;;;;;;21.25;4.90;;;;;;;16.76;74.34;102129.06;6269358;22;19992;-62
2022/06/13 01:06:08;;;;;;;20.42;5.68;;;;;;;16.76;74.51;102134.38;6266819;22;20012;-62
2022/06/13 01:08:36;;;;;;;17.17;4.57;;;;;;;16.74;74.48;102137.09;6266738;22;20012;-60
2022/06/13 01:11:17;;;;;;;13.80;4.28;;;;;;;16.76;74.61;102134.38;6242338;22;20007;-61
2022/06/13 01:14:20;;;;;;;9.20;4.18;;;;;;;16.84;74.57;102129.63;6236272;23;20032;-59
2022/06/13 01:17:01;;;;;;;17.55;5.63;;;;;;;16.78;75.17;102129.88;6238845;23;20095;-60
2022/06/13 01:20:14;;;;;;;16.83;4.88;;;;;;;16.81;74.90;102135.06;6237042;23;20647;-61
2022/06/13 01:23:10;;;;;;;15.45;4.50;;;;;;;16.90;74.30;102131.19;6211175;23;20044;-61
2022/06/13 01:25:44;;;;;;;19.98;5.78;;;;;;;16.82;75.22;102133.28;6239392;23;20028;-61
2022/06/13 01:28:36;;;;;;;16.77;4.70;;;;;;;16.85;75.13;102139.34;6238517;23;20030;-62
2022/06/13 01:31:13;;;;;;;15.20;4.70;;;;;;;16.90;74.81;102137.38;6238117;23;20057;-61
2022/06/13 01:34:06;;;;;;;18.63;5.30;;;;;;;16.85;75.63;102138.47;6236775;23;20000;-62
2022/06/13 01:37:05;;;;;;;14.07;4.75;;;;;;;16.91;75.45;102133.78;6239374;23;20299;-62
2022/06/13 01:39:33;;;;;;;;;;;;;;;16.93;75.45;102134.59;6238381;23;20083;-60
2022/06/13 01:42:16;;;;;;;10.98;4.10;;;;;;;16.92;75.53;102140.81;6239288;23;19907;-60
2022/06/13 01:44:52;;;;;;;20.10;5.30;;;;;;;16.90;75.92;102132.06;6238250;23;20075;-60
2022/06/13 01:47:46;;;;;;;20.92;5.38;;;;;;;16.87;76.30;102140.16;6239072;23;20015;-60
2022/06/13 01:50:11;;;;;;;23.42;4.70;;;;;;;16.97;75.88;102131.78;6194752;23;20014;-60
2022/06/13 01:52:45;;;;;;;18.80;5.07;;;;;;;16.98;75.70;102134.38;6237963;23;20374;-60
2022/06/13 01:55:34;;;;;;;21.10;4.65;;;;;;;16.94;75.87;102138.09;6238010;23;20038;-60
2022/06/13 01:58:18;;;;;;;26.63;5.85;;;;;;;16.96;76.45;102140.69;6210529;23;20451;-60
2022/06/13 02:00:50;;;;;;;16.08;5.57;;;;;;;16.93;76.43;102141.69;6211623;23;20011;-62
2022/06/13 02:03:16;;;;;;;17.23;5.70;;;;;;;16.83;76.83;102143.00;6211278;23;20016;-60
2022/06/13 02:05:46;;;;;;;24.13;5.88;;;;;;;16.86;77.21;102141.06;6237701;23;20010;-60
2022/06/13 02:08:17;;;;;;;18.88;5.60;;;;;;;16.82;77.32;102142.13;6235697;23;20010;-60
2022/06/13 02:10:47;;;;;;;16.63;5.95;;;;;;;16.79;77.60;102134.25;6210194;23;20000;-61
2022/06/13 02:13:31;;;;;;;19.52;6.05;;;;;;;16.80;77.82;102138.69;6235941;23;20012;-60
2022/06/13 02:15:59;;;;;;;26.38;5.97;;;;;;;16.75;78.13;102140.63;6238419;23;20034;-60
2022/06/13 02:18:28;;;;;;;24.15;6.45;;;;;;;16.66;78.70;102145.41;6236596;23;20069;-60
2022/06/13 02:20:57;;;;;;;19.08;5.70;;;;;;;16.70;78.69;102146.13;6213196;23;20401;-61
2022/06/13 02:23:23;;;;;;;;;;;;;;;16.71;78.88;102147.00;6238658;23;19996;-59
2022/06/13 02:25:57;;;;;;;15.23;4.93;;;;;;;16.67;78.77;102148.91;6213069;23;20037;-59
2022/06/13 02:28:29;;;;;;;19.17;5.18;;;;;;;16.65;78.86;102148.13;6239829;23;20003;-59
2022/06/13 02:31:23;;;;;;;28.23;6.05;;;;;;;16.65;79.20;102150.78;6236043;23;20420;-59
2022/06/13 02:33:54;;;;;;;25.00;5.95;;;;;;;16.71;79.11;102147.00;6238853;23;20057;-60
2022/06/13 02:36:49;;;;;;;24.25;6.18;;;;;;;16.72;79.09;102146.06;6236473;23;20038;-61
2022/06/13 02:39:31;;;;;;;20.65;5.63;;;;;;;16.68;79.24;102148.00;6238072;23;20008;-60
2022/06/13 02:42:00;;;;;;;29.05;6.50;;;;;;;16.74;78.92;102153.06;6237211;23;20004;-61
2022/06/13 02:44:33;;;;;;;;;;;;;;;16.81;78.23;102145.72;6237470;23;20000;-60
2022/06/13 02:47:09;;;;;;;22.02;6.22;;;;;;;16.85;76.94;102144.66;6238351;23;19915;-62
2022/06/13 02:49:40;;;;;;;23.08;5.53;;;;;;;16.81;75.42;102140.41;6239142;23;20004;-62
2022/06/13 02:52:13;;;;;;;16.40;5.45;;;;;;;16.78;74.73;102145.84;6236867;23;20000;-61
2022/06/13 02:54:52;;;;;;;21.25;5.15;;;;;;;16.76;73.46;102145.91;6236587;23;20110;-60
2022/06/13 02:57:37;;;;;;;17.40;4.30;;;;;;;16.70;71.67;102155.94;6236453;23;20309;-61
2022/06/13 03:00:26;;;;;;;17.00;4.18;;;;;;;16.70;70.85;102155.94;6239190;23;20031;-61
2022/06/13 03:03:00;;;;;;;15.15;3.22;;;;;;;16.61;69.73;102152.69;6238393;23;20027;-60
2022/06/13 03:05:47;;;;;;;16.58;3.47;;;;;;;16.61;69.39;102151.81;6239296;23;20004;-60
2022/06/13 03:08:21;;;;;;;14.95;3.05;;;;;;;16.62;69.03;102150.91;6237311;23;20004;-60
2022/06/13 03:11:08;;;;;;;10.07;3.05;;;;;;;16.57;68.72;102161.72;6239684;23;20062;-60
2022/06/13 03:13:40;;;;;;;17.67;3.97;;;;;;;16.54;68.98;102164.50;6239611;23;20016;-62
2022/06/13 03:16:47;;;;;;;15.75;3.40;;;;;;;16.45;68.63;102167.50;6238896;23;20493;-64
2022/06/13 03:19:26;;;;;;;12.20;3.03;;;;;;;16.42;68.11;102164.03;6180757;23;20008;-60
2022/06/13 03:21:56;;;;;;;11.73;3.28;;;;;;;16.45;67.42;102162.19;6238977;23;20034;-61
2022/06/13 03:24:50;;;;;;;12.20;3.47;;;;;;;16.32;66.50;102165.31;6211509;23;20039;-61
2022/06/13 03:27:26;;;;;;;11.07;2.75;;;;;;;16.25;66.18;102166.44;6199971;23;20015;-61
2022/06/13 03:30:14;;;;;;;12.20;3.10;;;;;;;16.38;66.30;102170.38;6237821;23;20126;-62
2022/06/13 03:32:44;;;;;;;9.70;3.08;;;;;;;16.39;66.47;102174.78;6236237;23;20000;-59
2022/06/13 03:35:12;;;;;;;8.52;2.45;;;;;;;16.33;66.69;102171.47;6211571;23;19992;-61
2022/06/13 03:37:47;;;;;;;8.30;2.53;;;;;;;16.36;66.50;102174.03;6236666;23;20436;-61
2022/06/13 03:40:25;;;;;;;10.07;2.65;;;;;;;16.34;66.98;102176.75;6236265;23;20039;-61
2022/06/13 03:43:23;;;;;;;8.63;2.43;;;;;;;16.30;67.09;102169.81;6212503;23;20004;-62
2022/06/13 03:45:51;;;;;;;11.02;2.55;;;;;;;16.32;66.84;102178.63;6218247;23;20012;-61
2022/06/13 03:48:29;;;;;;;9.65;2.35;;;;;;;16.28;67.19;102188.47;6237454;23;20008;-61
2022/06/13 03:50:56;;;;;;;9.40;2.63;;;;;;;16.26;67.33;102185.00;6236295;23;20452;-61
2022/06/13 03:53:26;;;;;;;8.30;2.95;;;;;;;16.24;67.45;102191.31;6237945;23;20004;-60
2022/06/13 03:56:16;;;;;;;9.80;2.65;;;;;;;16.21;67.72;102191.41;6238309;23;20765;-62
2022/06/13 03:59:03;;;;;;;13.25;2.78;;;;;;;16.14;67.86;102191.63;6236720;23;20050;-62
2022/06/13 04:01:34;;;;;;;9.65;2.50;;;;;;;16.16;67.98;102200.44;6212688;23;20000;-61
2022/06/13 04:04:01;;;;;;;12.30;2.85;;;;;;;16.19;67.75;102198.59;6237537;23;20082;-60
2022/06/13 04:06:38;;;;;;;9.95;2.72;;;;;;;16.19;68.19;102199.44;6211726;23;20004;-61
2022/06/13 04:09:10;;;;;;;16.30;2.90;;;;;;;16.15;68.05;102204.03;6237123;23;20027;-61
2022/06/13 04:11:52;;;;;;;10.88;2.90;;;;;;;16.24;67.87;102199.28;6206531;23;20036;-61
2022/06/13 04:14:27;;;;;;;9.88;3.03;;;;;;;16.26;67.53;102200.94;6207733;23;20143;-61
2022/06/13 04:17:07;;;;;;;6.45;2.22;;;;;;;16.18;67.95;102197.72;6208624;23;19989;-61
2022/06/13 04:19:53;;;;;;;9.65;2.50;;;;;;;16.21;68.20;102202.94;6208433;23;20032;-61
2022/06/13 04:22:33;;;;;;;8.98;2.58;;;;;;;16.17;68.32;102199.50;6206559;23;20123;-61
2022/06/13 04:25:16;;;;;;;10.52;2.85;;;;;;;16.19;68.34;102203.91;6232158;23;20003;-61
2022/06/13 04:28:16;;;;;;;11.57;2.17;;;;;;;16.29;68.31;102205.31;6232121;23;19997;-62
2022/06/13 04:30:42;;;;;;;8.30;2.17;;;;;;;16.37;68.23;102205.00;6201201;23;20008;-61
2022/06/13 04:33:14;;;;;;;9.88;2.67;;;;;;;16.41;68.17;102202.19;6231501;23;20044;-61
2022/06/13 04:35:40;;;;;;;8.35;2.55;;;;;;;16.45;68.15;102210.94;6206701;23;20028;-60
2022/06/13 04:38:09;;;;;;;9.13;2.80;;;;;;;16.53;67.80;102208.00;6205115;23;20054;-61
2022/06/13 04:40:38;;;;;;;12.43;2.53;;;;;;;16.50;67.74;102208.97;6232012;23;20036;-61
2022/06/13 04:43:07;;;;;;;11.18;2.30;;;;;;;16.59;67.42;102213.09;6206779;23;20012;-62
2022/06/13 04:45:41;;;;;;;5.57;2.37;;;;;;;16.58;67.42;102208.69;6231693;23;20383;-62
2022/06/13 04:48:08;;;;;;;10.80;2.50;;;;;;;16.61;67.59;102210.34;6231206;23;20000;-61
2022/06/13 04:50:37;;;;;;;13.70;3.15;;;;;;;16.59;67.07;102199.78;6230678;23;20020;-62
2022/06/13 04:53:04;;;;;;;8.10;2.33;;;;;;;16.64;66.80;102207.56;6205070;23;20486;-60
2022/06/13 04:55:40;;;;;;;9.98;2.47;;;;;;;16.65;66.34;102212.84;6208660;23;20005;-60
2022/06/13 04:58:16;;;;;;;12.38;2.53;;;;;;;16.67;66.16;102213.66;6204278;23;20004;-61
2022/06/13 05:00:42;;;;;;;8.25;2.38;;;;;;;16.74;65.25;102216.09;6178167;23;20483;-61
2022/06/13 05:03:19;;;;;;;6.30;1.92;;;;;;;16.71;65.20;102210.88;6229634;23;20084;-61
2022/06/13 05:05:46;;;;;;;7.50;2.67;;;;;;;16.72;64.82;102217.94;6229159;23;20001;-61
2022/06/13 05:08:40;;;;;;;7.32;1.92;;;;;;;16.73;65.18;102215.22;6206430;23;20008;-60
2022/06/13 05:11:09;;;;;;;3.10;1.67;;;;;;;16.77;64.86;102223.97;6207048;23;20372;-61
2022/06/13 05:13:34;;;;;;;10.70;2.15;;;;;;;16.69;65.44;102226.91;6238251;23;20371;-61
2022/06/13 05:16:10;;;;;;;11.05;2.10;;;;;;;16.70;65.64;102223.31;6236676;23;20024;-61
2022/06/13 05:18:57;;;;;;;7.45;1.95;;;;;;;16.72;65.50;102236.56;6236269;23;20005;-61
2022/06/13 05:21:22;;;;;;;7.25;1.77;;;;;;;16.70;65.11;102239.28;6237253;23;20082;-61
2022/06/13 05:24:14;;;;;;;7.78;2.30;;;;;;;16.74;65.08;102242.72;6237146;23;20417;-61
2022/06/13 05:26:39;;;;;;;7.18;1.85;;;;;;;16.89;64.83;102246.59;6236472;23;20022;-61
2022/06/13 05:29:04;;;;;;;9.32;2.10;;;;;;;17.07;64.76;102249.47;6236813;23;20420;-60
2022/06/13 05:31:30;;;;;;;8.07;1.80;;;;;;;17.04;64.92;102258.44;6238179;23;20428;-60
2022/06/13 05:33:56;;;;;;;7.57;2.28;;;;;;;16.93;65.65;102254.41;6236475;23;20008;-61
2022/06/13 05:36:23;;;;;;;9.52;1.80;;;;;;;16.98;65.56;102258.66;6236445;23;20574;-62
2022/06/13 05:38:51;;;;;;;7.72;2.00;;;;;;;16.85;66.54;102272.44;6236808;23;20010;-62
2022/06/13 05:41:17;;;;;;;8.35;1.75;;;;;;;16.67;65.97;102279.31;6237892;23;20000;-65
2022/06/13 05:43:42;;;;;;;6.50;1.75;;;;;;;16.77;65.82;102267.41;6237266;23;20075;-61
2022/06/13 05:46:10;;;;;;;8.75;1.98;;;;;;;16.91;65.91;102274.00;6236770;23;20038;-62
2022/06/13 05:48:36;;;;;;;9.20;2.30;;;;;;;16.99;65.49;102285.25;6209261;23;20004;-60
2022/06/13 05:51:01;;;;;;;9.57;2.22;;;;;;;17.04;65.29;102277.91;6237515;23;20310;-63
2022/06/13 05:53:27;;;;;;;8.88;1.95;;;;;;;17.07;65.38;102277.00;6236514;23;20491;-60
2022/06/13 05:55:56;;;;;;;7.30;1.67;;;;;;;17.14;64.45;102281.16;6239062;23;20469;-61
2022/06/13 05:58:23;;;;;;;5.55;1.85;;;;;;;17.09;63.72;102283.09;6237320;23;20000;-61
2022/06/13 06:00:52;;;;;;;7.95;1.58;;;;;;;17.10;63.67;102282.16;6238720;23;20004;-60
2022/06/13 06:03:18;;;;;;;8.13;1.48;;;;;;;17.21;63.56;102291.53;6239772;23;19997;-56
2022/06/13 06:05:44;;;;;;;8.43;1.70;;;;;;;17.21;63.08;102294.19;6239300;23;20012;-61
2022/06/13 06:08:17;;;;;;;11.55;1.95;;;;;;;17.16;62.64;102305.06;6237681;23;20008;-60
2022/06/13 06:10:43;;;;;;;9.15;2.05;;;;;;;17.10;62.60;102298.16;6239303;23;20038;-60
2022/06/13 06:13:11;;;;;;;8.20;1.70;;;;;;;17.18;62.11;102306.72;6211110;23;20433;-60
2022/06/13 06:15:36;;;;;;;7.70;1.10;;;;;;;17.18;62.44;102304.06;6238140;23;20015;-61
2022/06/13 06:18:02;;;;;;;7.07;1.65;;;;;;;17.20;62.61;102306.66;6237765;23;20083;-62
2022/06/13 06:20:27;;;;;;;10.23;1.38;;;;;;;17.28;60.34;102309.91;6238038;23;20306;-60
2022/06/13 06:22:52;;;;;;;7.35;1.80;;;;;;;17.16;61.33;102313.91;6237226;23;20526;-60
2022/06/13 06:25:18;;;;;;;12.88;1.77;;;;;;;17.08;62.08;102309.78;6238672;23;20420;-59
2022/06/13 06:27:43;;;;;;;5.93;1.38;;;;;;;16.91;62.39;102317.47;6238696;23;20004;-62
2022/06/13 06:30:11;;;;;;;6.10;1.88;;;;;;;16.86;62.84;102322.09;6237455;23;20034;-60
2022/06/13 06:32:36;;;;;;;6.85;1.67;;;;;;;16.97;62.95;102327.00;6210088;23;20008;-61
2022/06/13 06:35:02;;;;;;;9.73;1.88;;;;;;;17.15;62.43;102316.63;6239096;23;20047;-61
2022/06/13 06:37:27;;;;;;;8.93;1.75;;;;;;;17.21;62.47;102318.16;6237153;23;20004;-60
2022/06/13 06:39:52;;;;;;;12.80;1.70;;;;;;;17.25;62.36;102311.81;6238426;23;20090;-61
2022/06/13 06:42:18;;;;;;;10.52;1.65;;;;;;;17.32;61.89;102318.66;6238996;23;20000;-61
2022/06/13 06:44:43;;;;;;;9.82;1.77;;;;;;;17.16;61.90;102313.91;6239280;23;20011;-62
2022/06/13 06:47:08;;;;;;;6.85;1.40;;;;;;;17.35;61.28;102323.84;6238398;23;20015;-61
2022/06/13 06:49:37;;;;;;;10.50;1.33;;;;;;;17.17;58.92;102315.66;6237707;23;20062;-62
2022/06/13 06:52:04;;;;;;;6.47;1.17;;;;;;;17.03;57.93;102329.44;6231745;23;19999;-61
2022/06/13 06:59:57;;;;;;;8.25;1.02;;;;;;;16.78;57.00;102338.34;6213702;23;20331;-60
2022/06/13 07:02:25;;;;;;;6.68;1.27;;;;;;;16.96;56.89;102343.03;6214366;23;20064;-60
2022/06/13 07:04:52;;;;;;;10.43;1.50;;;;;;;17.05;56.81;102345.38;6212316;23;20037;-65
2022/06/13 07:07:17;;;;;;;6.57;1.40;;;;;;;17.08;56.22;102337.31;6213245;23;20008;-61
2022/06/13 07:09:43;;;;;;;5.05;1.10;;;;;;;17.11;55.90;102339.84;6214390;23;20054;-65
2022/06/13 07:12:09;;;;;;;3.92;1.10;;;;;;;17.11;56.59;102347.84;6214107;23;20038;-62
2022/06/13 07:14:34;;;;;;;6.28;1.30;;;;;;;17.33;57.74;102341.69;6213880;23;20008;-64
2022/06/13 07:17:02;;;;;;;8.93;1.50;;;;;;;17.78;56.71;102352.38;6213027;23;20007;-60
2022/06/13 07:19:28;;;;;;;4.57;1.50;;;;;;;17.86;56.08;102350.28;6215634;23;20007;-61
2022/06/13 07:21:54;;;;;;;3.63;1.17;;;;;;;18.04;56.49;102350.44;6213362;23;20000;-61
2022/06/13 07:24:20;;;;;;;5.30;1.20;;;;;;;18.13;55.92;102352.78;6213174;23;20079;-61
2022/06/13 07:26:47;;;;;;;4.57;1.10;;;;;;;18.34;55.95;102358.13;6214858;23;20043;-60
2022/06/13 07:29:13;;;;;;;10.15;1.40;;;;;;;18.54;54.81;102346.56;6213795;23;20004;-61
2022/06/13 07:31:44;;;;;;;8.65;1.42;;;;;;;18.32;56.27;102370.66;6214812;23;20011;-62
2022/06/13 07:34:17;;;;;;;5.72;1.45;;;;;;;17.98;58.12;102350.69;6212422;23;20000;-61
2022/06/13 07:36:43;;;;;;;8.73;1.80;;;;;;;17.77;58.35;102372.84;6212498;23;20424;-61
2022/06/13 07:39:09;;;;;;;6.38;1.45;;;;;;;17.85;58.82;102371.69;6232674;23;20099;-59
2022/06/13 07:41:36;;;;;;;7.97;1.60;;;;;;;18.12;58.41;102367.03;6236992;23;20027;-63
2022/06/13 07:44:02;;;;;;;8.05;1.25;;;;;;;18.32;57.36;102373.31;6235647;23;20555;-63
2022/06/13 07:46:29;;;;;;;2.80;1.10;;;;;;;18.36;56.32;102366.91;6239204;23;20031;-62
2022/06/13 07:48:55;;;;;;;11.63;1.63;;;;;;;18.19;55.95;102376.50;6210125;23;20434;-63
2022/06/13 07:51:21;;;;;;;14.70;2.00;;;;;;;18.25;56.67;102379.84;6236038;23;19996;-63
2022/06/13 07:53:47;;;;;;;9.18;1.65;;;;;;;17.80;58.53;102388.72;6236475;23;20000;-63
2022/06/13 07:56:14;;;;;;;5.28;1.35;;;;;;;17.47;60.75;102398.91;6237977;23;20007;-62
2022/06/13 07:58:41;;;;;;;8.45;2.10;;;;;;;17.38;61.33;102403.66;6211057;23;20004;-64
2022/06/13 08:01:06;;;;;;;12.30;2.00;;;;;;;17.48;61.80;102404.16;6211230;23;20012;-60
2022/06/13 08:03:33;;;;;;;9.02;1.95;;;;;;;17.34;61.84;102410.00;6237047;23;19996;-61
2022/06/13 08:05:59;;;;;;;7.60;1.85;;;;;;;17.18;61.64;102401.72;6237372;23;20122;-61
2022/06/13 08:08:25;;;;;;;9.15;1.60;;;;;;;17.34;61.42;102396.69;6238129;23;20370;-62
2022/06/13 08:10:51;;;;;;;8.52;1.73;;;;;;;17.75;59.33;102396.03;6237303;23;20014;-64
2022/06/13 08:13:18;;;;;;;3.92;1.27;;;;;;;17.78;58.46;102411.91;6236716;23;20012;-62
2022/06/13 08:15:44;;;;;;;3.58;1.10;;;;;;;17.77;55.76;102410.19;6237701;23;20440;-63
2022/06/13 08:18:10;;;;;;;5.22;1.42;;;;;;;17.68;55.12;102406.06;6237379;23;20011;-60
2022/06/13 08:20:36;;;;;;;4.78;1.45;;;;;;;17.78;55.05;102419.91;6238730;23;20011;-61
2022/06/13 08:23:03;;;;;;;9.50;1.40;;;;;;;17.94;55.32;102422.81;6211342;23;20008;-60
2022/06/13 08:25:32;;;;;;;6.03;1.70;;;;;;;18.13;56.58;102415.91;6239000;23;20008;-60
2022/06/13 08:27:58;;;;;;;;;;;;;;;18.47;55.61;102425.19;6239547;23;20000;-61
2022/06/13 08:30:24;;;;;;;3.83;1.10;;;;;;;18.14;53.37;102418.50;6238030;23;19916;-61
2022/06/13 08:32:49;;;;;;;6.40;1.45;;;;;;;18.24;55.61;102418.16;6237955;23;20490;-62
2022/06/13 08:35:15;;;;;;;6.28;1.52;;;;;;;18.35;53.68;102437.22;6238486;23;20000;-61
2022/06/13 08:37:41;;;;;;;5.22;1.10;;;;;;;18.74;52.58;102432.94;6237312;23;20058;-62
2022/06/13 08:40:08;;;;;;;7.50;1.08;;;;;;;19.07;52.83;102439.53;6237402;23;20010;-62
2022/06/13 08:43:09;;;;;;;4.13;1.33;;;;;;;19.34;51.80;102433.91;6238170;23;20024;-62
2022/06/13 08:45:41;;;;;;;4.40;1.40;;;;;;;19.29;52.22;102446.59;6237856;23;20357;-59
2022/06/13 08:48:09;;;;;;;9.18;1.63;;;;;;;19.23;54.37;102441.56;6237781;23;20000;-61
2022/06/13 08:50:53;;;;;;;3.88;1.63;;;;;;;19.34;51.67;102441.91;6234786;23;20000;-63
2022/06/13 08:53:24;;;;;;;4.60;1.33;;;;;;;19.36;51.46;102436.50;6235584;23;20004;-62
2022/06/13 08:55:58;;;;;;;7.63;1.60;;;;;;;19.48;51.88;102448.44;6236644;23;20340;-62
2022/06/13 08:58:27;;;;;;;7.82;1.60;;;;;;;19.57;51.80;102448.03;6234287;23;20000;-59
2022/06/13 09:01:07;;;;;;;4.55;1.45;;;;;;;19.19;52.87;102455.06;6237799;23;20091;-63
2022/06/13 09:03:41;;;;;;;6.53;1.60;;;;;;;18.81;53.90;102461.09;6236535;23;20034;-62
2022/06/13 09:06:19;;;;;;;7.20;1.77;;;;;;;18.34;54.90;102466.66;6210900;23;20030;-62
2022/06/13 09:08:54;;;;;;;6.97;1.77;;;;;;;18.39;53.10;102465.53;6236749;23;20007;-62
2022/06/13 09:11:32;;;;;;;8.90;1.33;;;;;;;18.91;54.03;102450.88;6236879;23;20012;-60
2022/06/13 09:14:14;;;;;;;9.60;1.92;;;;;;;19.27;51.98;102461.84;6210954;23;20008;-62
2022/06/13 09:16:42;;;;;;;7.72;1.42;;;;;;;19.28;51.27;102476.94;6237884;23;20071;-61
2022/06/13 09:19:20;;;;;;;6.00;1.40;;;;;;;19.18;51.01;102485.34;6237725;23;20008;-63
2022/06/13 09:21:53;;;;;;;4.10;1.23;;;;;;;19.16;52.69;102478.34;6237482;23;20004;-61
2022/06/13 09:24:52;;;;;;;7.25;1.40;;;;;;;19.30;52.25;102486.59;6211945;23;20002;-61
2022/06/13 09:27:30;;;;;;;9.90;1.83;;;;;;;19.60;52.61;102473.72;6221467;23;20012;-60
2022/06/13 09:30:04;;;;;;;7.90;1.50;;;;;;;19.67;52.09;102485.88;6238224;23;20036;-61
2022/06/13 09:32:56;;;;;;;9.73;1.60;;;;;;;19.17;53.93;102501.44;6238009;23;20046;-62
2022/06/13 09:35:25;;;;;;;4.72;1.45;;;;;;;18.81;53.42;102486.94;6232902;23;20089;-61
2022/06/13 09:37:58;;;;;;;9.38;1.52;;;;;;;18.96;53.60;102496.09;6237390;23;20000;-61
2022/06/13 09:40:29;;;;;;;5.05;1.35;;;;;;;19.32;52.15;102489.22;6236410;23;20000;-61
2022/06/13 09:43:06;;;;;;;8.65;1.67;;;;;;;19.59;52.15;102482.69;6237639;23;20023;-61
2022/06/13 09:45:43;;;;;;;4.80;1.52;;;;;;;19.52;52.11;102492.78;6237610;23;20333;-62
2022/06/13 09:48:20;;;;;;;7.53;1.52;;;;;;;19.46;52.37;102493.94;6236856;23;20046;-61
2022/06/13 09:50:56;;;;;;;9.73;1.60;;;;;;;19.47;51.85;102489.47;6210922;23;20004;-61
2022/06/13 09:53:33;;;;;;;5.40;1.52;;;;;;;19.17;51.72;102499.66;6209248;23;19996;-61
2022/06/13 09:56:04;;;;;;;7.03;1.30;;;;;;;19.09;53.26;102506.28;6237126;23;20008;-61
2022/06/13 09:59:00;;;;;;;5.68;1.42;;;;;;;19.53;50.46;102511.44;6238113;23;20004;-61
2022/06/13 10:01:44;;;;;;;3.05;1.13;;;;;;;19.49;49.86;102499.16;6236349;23;20413;-62
2022/06/13 10:04:18;;;;;;;4.03;1.02;;;;;;;19.42;48.76;102505.72;6237058;23;20058;-62
2022/06/13 10:06:50;;;;;;;7.47;1.35;;;;;;;19.65;47.95;102512.69;6236260;23;20718;-62
2022/06/13 10:10:00;;;;;;;5.80;1.30;;;;;;;19.52;49.04;102509.72;6210361;23;20130;-61
2022/06/13 10:12:38;;;;;;;4.30;1.17;;;;;;;19.41;49.69;102517.31;6236934;23;20020;-61
2022/06/13 10:15:27;;;;;;;4.35;1.40;;;;;;;19.02;50.19;102511.84;6235857;23;20017;-62
2022/06/13 10:18:01;;;;;;;5.88;1.30;;;;;;;19.08;50.57;102517.91;6235914;23;20069;-60
2022/06/13 10:20:50;;;;;;;6.32;1.98;;;;;;;19.21;49.93;102508.41;6237458;23;20716;-60
2022/06/13 10:23:52;;;;;;;7.85;1.80;;;;;;;19.16;48.87;102524.66;6209379;23;20049;-61
2022/06/13 10:26:31;;;;;;;4.97;1.40;;;;;;;19.31;48.80;102516.88;6236240;23;20008;-62
2022/06/13 10:29:18;;;;;;;7.22;1.67;;;;;;;19.57;49.15;102533.56;6210071;23;20000;-62
2022/06/13 10:31:52;;;;;;;8.18;1.40;;;;;;;19.47;47.31;102529.56;6208036;23;20012;-63
2022/06/13 10:34:26;;;;;;;5.93;1.63;;;;;;;19.31;47.87;102517.75;6235569;23;20032;-61
2022/06/13 10:37:10;;;;;;;7.47;1.70;;;;;;;19.27;46.44;102539.34;6209242;23;20004;-62
2022/06/13 10:39:36;;;;;;;6.90;1.70;;;;;;;19.17;46.94;102523.72;6237125;23;20033;-63
2022/06/13 10:42:07;;;;;;;7.10;1.40;;;;;;;19.12;46.81;102525.72;6237191;23;20321;-64
2022/06/13 10:44:33;;;;;;;6.28;1.58;;;;;;;19.27;46.65;102521.47;6237523;23;20079;-62
2022/06/13 10:47:04;;;;;;;3.60;1.02;;;;;;;19.13;47.44;102523.91;6209847;23;20042;-61
2022/06/13 10:49:39;;;;;;;8.43;1.85;;;;;;;19.11;48.67;102523.13;6237794;23;20022;-61
2022/06/13 10:52:15;;;;;;;3.95;1.42;;;;;;;19.04;48.36;102528.69;6235423;23;20004;-60
2022/06/13 10:54:46;;;;;;;7.72;1.90;;;;;;;19.22;48.16;102523.50;6238006;23;20004;-60
2022/06/13 10:57:18;;;;;;;9.63;1.92;;;;;;;19.28;48.33;102528.59;6236773;23;20000;-61
2022/06/13 10:59:43;;;;;;;6.72;1.92;;;;;;;19.44;49.09;102528.75;6238777;23;20030;-65
2022/06/13 11:02:24;;;;;;;9.00;1.60;;;;;;;19.63;48.20;102529.75;6237556;23;20328;-61
2022/06/13 11:05:08;;;;;;;7.65;1.27;;;;;;;19.79;46.59;102540.59;6237766;23;19996;-61
2022/06/13 11:07:40;;;;;;;8.57;1.77;;;;;;;19.89;45.84;102531.19;6237025;23;20008;-62
2022/06/13 11:10:06;;;;;;;5.57;1.63;;;;;;;19.63;46.76;102532.41;6210284;23;20506;-60
2022/06/13 11:12:36;;;;;;;6.70;1.58;;;;;;;19.35;46.42;102531.84;6236941;23;20047;-62
2022/06/13 11:24:03;;;;;;;7.65;1.55;;;;;;;20.02;47.99;102554.75;6237157;23;20062;-62
2022/06/13 11:29:21;;;;;;;7.38;1.60;;;;;;;20.00;47.17;102549.44;6237695;23;20146;-62
2022/06/13 11:31:54;;;;;;;7.63;1.73;;;;;;;19.94;47.25;102539.91;6238550;23;20008;-61
2022/06/13 11:34:27;;;;;;;7.68;2.00;;;;;;;19.78;48.07;102547.75;6238513;23;20031;-62
2022/06/13 11:36:58;;;;;;;7.75;1.83;;;;;;;19.85;47.95;102555.47;6237101;23;20417;-62
2022/06/13 11:39:50;;;;;;;6.63;1.52;;;;;;;20.14;46.43;102546.13;6238950;23;20047;-61
2022/06/13 11:42:29;;;;;;;4.78;1.63;;;;;;;20.01;45.61;102547.63;6232589;23;20421;-60
2022/06/13 11:45:01;;;;;;;11.35;2.13;;;;;;;20.01;45.87;102553.88;6210578;23;20362;-62
2022/06/13 11:47:41;;;;;;;8.77;1.48;;;;;;;19.72;46.62;102563.22;6238671;23;20451;-62
2022/06/13 11:50:21;;;;;;;5.82;1.75;;;;;;;19.90;45.27;102561.50;6237267;23;20032;-61
2022/06/13 11:55:39;;;;;;;6.70;1.75;;;;;;;20.20;45.14;102564.56;6215477;23;20023;-63
2022/06/13 11:58:05;;;;;;;8.95;1.85;;;;;;;20.26;45.26;102563.41;6238295;23;20496;-61
2022/06/13 12:00:51;;;;;;;11.13;1.58;;;;;;;20.47;44.11;102554.41;6236969;23;20047;-62
2022/06/13 12:03:20;;;;;;;7.60;1.20;;;;;;;20.76;43.86;102549.41;6236611;23;20519;-62
2022/06/13 12:06:08;;;;;;;9.88;1.73;;;;;;;20.71;42.68;102558.53;6236961;23;20087;-60
2022/06/13 12:08:34;;;;;;;;;;;;;;;21.10;39.02;102558.44;6238211;23;20058;-60
2022/06/13 12:11:20;;;;;;;9.43;1.80;;;;;;;20.93;43.21;102554.84;6237715;23;19907;-62
2022/06/13 12:13:47;;;;;;;7.60;1.40;;;;;;;20.50;42.68;102564.97;6239016;23;20247;-61